sensor_id;sensor_type;location;lat;lon;timestamp;P1;durP1;ratioP1;P2;durP2;ratioP2
40757;SDS011;26462;47.384;19.218;2022-07-03T00:01:58;5.25;;;3.10;;
40757;SDS011;26462;47.384;19.218;2022-07-03T00:04:26;10.40;;;4.28;;
40757;SDS011;26462;47.384;19.218;2022-07-03T00:06:53;5.68;;;3.78;;
40757;SDS011;26462;47.384;19.218;2022-07-03T00:09:21;6.10;;;3.75;;
40757;SDS011;26462;47.384;19.218;2022-07-03T00:11:48;8.95;;;4.65;;
40757;SDS011;26462;47.384;19.218;2022-07-03T00:14:16;6.18;;;3.63;;
40757;SDS011;26462;47.384;19.218;2022-07-03T00:16:44;11.55;;;4.22;;
40757;SDS011;26462;47.384;19.218;2022-07-03T00:19:11;8.43;;;4.32;;
40757;SDS011;26462;47.384;19.218;2022-07-03T00:21:40;10.80;;;4.70;;
40757;SDS011;26462;47.384;19.218;2022-07-03T00:24:25;10.00;;;4.90;;
40757;SDS011;26462;47.384;19.218;2022-07-03T00:29:26;9.27;;;4.70;;
40757;SDS011;26462;47.384;19.218;2022-07-03T00:31:58;8.88;;;4.65;;
40757;SDS011;26462;47.384;19.218;2022-07-03T00:34:26;6.82;;;3.72;;
40757;SDS011;26462;47.384;19.218;2022-07-03T00:36:55;7.15;;;3.85;;
40757;SDS011;26462;47.384;19.218;2022-07-03T00:39:23;8.90;;;4.18;;
40757;SDS011;26462;47.384;19.218;2022-07-03T00:41:58;7.22;;;4.05;;
40757;SDS011;26462;47.384;19.218;2022-07-03T00:44:28;7.68;;;4.05;;
40757;SDS011;26462;47.384;19.218;2022-07-03T00:46:56;6.78;;;3.83;;
40757;SDS011;26462;47.384;19.218;2022-07-03T00:49:24;7.13;;;4.45;;
40757;SDS011;26462;47.384;19.218;2022-07-03T00:51:52;8.57;;;4.50;;
40757;SDS011;26462;47.384;19.218;2022-07-03T00:54:21;6.30;;;4.10;;
40757;SDS011;26462;47.384;19.218;2022-07-03T00:56:50;8.38;;;4.15;;
40757;SDS011;26462;47.384;19.218;2022-07-03T00:59:18;17.45;;;4.05;;
40757;SDS011;26462;47.384;19.218;2022-07-03T01:01:45;10.25;;;4.35;;
40757;SDS011;26462;47.384;19.218;2022-07-03T01:06:55;12.52;;;3.90;;
40757;SDS011;26462;47.384;19.218;2022-07-03T01:09:34;15.00;;;4.35;;
40757;SDS011;26462;47.384;19.218;2022-07-03T01:12:23;6.07;;;3.95;;
40757;SDS011;26462;47.384;19.218;2022-07-03T01:14:58;7.72;;;4.20;;
40757;SDS011;26462;47.384;19.218;2022-07-03T01:17:39;10.20;;;4.60;;
40757;SDS011;26462;47.384;19.218;2022-07-03T01:20:15;8.63;;;4.35;;
40757;SDS011;26462;47.384;19.218;2022-07-03T01:22:48;7.00;;;4.10;;
40757;SDS011;26462;47.384;19.218;2022-07-03T01:25:25;6.20;;;3.53;;
40757;SDS011;26462;47.384;19.218;2022-07-03T01:28:12;8.45;;;3.92;;
40757;SDS011;26462;47.384;19.218;2022-07-03T01:30:46;5.72;;;3.83;;
40757;SDS011;26462;47.384;19.218;2022-07-03T01:36:03;7.65;;;4.68;;
40757;SDS011;26462;47.384;19.218;2022-07-03T01:38:33;7.68;;;4.75;;
40757;SDS011;26462;47.384;19.218;2022-07-03T01:41:05;8.02;;;4.28;;
40757;SDS011;26462;47.384;19.218;2022-07-03T01:43:35;7.05;;;4.38;;
40757;SDS011;26462;47.384;19.218;2022-07-03T01:46:05;9.75;;;4.22;;
40757;SDS011;26462;47.384;19.218;2022-07-03T01:48:33;6.22;;;4.07;;
40757;SDS011;26462;47.384;19.218;2022-07-03T01:51:00;8.73;;;4.50;;
40757;SDS011;26462;47.384;19.218;2022-07-03T01:53:29;7.65;;;4.18;;
40757;SDS011;26462;47.384;19.218;2022-07-03T01:55:58;9.05;;;5.43;;
40757;SDS011;26462;47.384;19.218;2022-07-03T01:58:26;7.50;;;4.57;;
40757;SDS011;26462;47.384;19.218;2022-07-03T02:00:57;6.07;;;4.22;;
40757;SDS011;26462;47.384;19.218;2022-07-03T02:03:44;9.43;;;5.03;;
40757;SDS011;26462;47.384;19.218;2022-07-03T02:06:23;7.13;;;4.20;;
40757;SDS011;26462;47.384;19.218;2022-07-03T02:09:07;8.82;;;4.70;;
40757;SDS011;26462;47.384;19.218;2022-07-03T02:11:52;6.88;;;4.38;;
40757;SDS011;26462;47.384;19.218;2022-07-03T02:14:40;8.40;;;4.70;;
40757;SDS011;26462;47.384;19.218;2022-07-03T02:17:21;8.52;;;4.78;;
40757;SDS011;26462;47.384;19.218;2022-07-03T02:19:56;7.72;;;4.70;;
40757;SDS011;26462;47.384;19.218;2022-07-03T02:22:37;8.13;;;4.60;;
40757;SDS011;26462;47.384;19.218;2022-07-03T02:25:12;8.10;;;4.35;;
40757;SDS011;26462;47.384;19.218;2022-07-03T02:30:23;7.55;;;4.57;;
40757;SDS011;26462;47.384;19.218;2022-07-03T02:32:51;8.00;;;4.45;;
40757;SDS011;26462;47.384;19.218;2022-07-03T02:35:25;6.57;;;4.47;;
40757;SDS011;26462;47.384;19.218;2022-07-03T02:40:39;10.80;;;4.95;;
40757;SDS011;26462;47.384;19.218;2022-07-03T02:46:12;7.82;;;4.95;;
40757;SDS011;26462;47.384;19.218;2022-07-03T02:49:33;6.50;;;4.05;;
40757;SDS011;26462;47.384;19.218;2022-07-03T03:04:11;9.38;;;4.78;;
40757;SDS011;26462;47.384;19.218;2022-07-03T03:06:47;8.80;;;4.88;;
40757;SDS011;26462;47.384;19.218;2022-07-03T03:09:20;10.32;;;5.32;;
40757;SDS011;26462;47.384;19.218;2022-07-03T03:11:54;8.63;;;4.55;;
40757;SDS011;26462;47.384;19.218;2022-07-03T03:14:24;9.80;;;5.18;;
40757;SDS011;26462;47.384;19.218;2022-07-03T03:16:59;7.82;;;4.35;;
40757;SDS011;26462;47.384;19.218;2022-07-03T03:19:29;8.70;;;5.05;;
40757;SDS011;26462;47.384;19.218;2022-07-03T03:25:10;11.13;;;5.65;;
40757;SDS011;26462;47.384;19.218;2022-07-03T03:27:38;8.98;;;5.20;;
40757;SDS011;26462;47.384;19.218;2022-07-03T03:30:05;10.95;;;5.20;;
40757;SDS011;26462;47.384;19.218;2022-07-03T03:32:36;10.32;;;5.68;;
40757;SDS011;26462;47.384;19.218;2022-07-03T03:35:05;12.40;;;5.18;;
40757;SDS011;26462;47.384;19.218;2022-07-03T03:37:33;12.25;;;5.55;;
40757;SDS011;26462;47.384;19.218;2022-07-03T03:40:02;13.05;;;5.80;;
40757;SDS011;26462;47.384;19.218;2022-07-03T03:42:30;10.52;;;5.70;;
40757;SDS011;26462;47.384;19.218;2022-07-03T03:44:57;16.38;;;6.82;;
40757;SDS011;26462;47.384;19.218;2022-07-03T03:47:24;8.48;;;4.82;;
40757;SDS011;26462;47.384;19.218;2022-07-03T03:49:51;9.10;;;5.50;;
40757;SDS011;26462;47.384;19.218;2022-07-03T03:52:18;8.85;;;4.72;;
40757;SDS011;26462;47.384;19.218;2022-07-03T03:54:45;12.05;;;5.22;;
40757;SDS011;26462;47.384;19.218;2022-07-03T03:57:23;9.65;;;6.25;;
40757;SDS011;26462;47.384;19.218;2022-07-03T03:59:51;10.48;;;5.70;;
40757;SDS011;26462;47.384;19.218;2022-07-03T04:02:18;10.10;;;5.53;;
40757;SDS011;26462;47.384;19.218;2022-07-03T04:04:46;10.98;;;5.53;;
40757;SDS011;26462;47.384;19.218;2022-07-03T04:07:13;11.35;;;5.97;;
40757;SDS011;26462;47.384;19.218;2022-07-03T04:09:40;9.35;;;5.32;;
40757;SDS011;26462;47.384;19.218;2022-07-03T04:12:08;9.20;;;5.07;;
40757;SDS011;26462;47.384;19.218;2022-07-03T04:14:35;9.63;;;5.50;;
40757;SDS011;26462;47.384;19.218;2022-07-03T04:17:02;9.93;;;5.15;;
40757;SDS011;26462;47.384;19.218;2022-07-03T04:19:30;8.52;;;5.05;;
40757;SDS011;26462;47.384;19.218;2022-07-03T04:21:57;9.82;;;6.00;;
40757;SDS011;26462;47.384;19.218;2022-07-03T04:24:24;11.25;;;5.57;;
40757;SDS011;26462;47.384;19.218;2022-07-03T04:26:51;9.15;;;5.63;;
40757;SDS011;26462;47.384;19.218;2022-07-03T04:29:18;9.23;;;5.80;;
40757;SDS011;26462;47.384;19.218;2022-07-03T04:31:46;12.18;;;6.47;;
40757;SDS011;26462;47.384;19.218;2022-07-03T04:34:13;8.75;;;5.70;;
40757;SDS011;26462;47.384;19.218;2022-07-03T04:36:40;11.45;;;6.45;;
40757;SDS011;26462;47.384;19.218;2022-07-03T04:39:07;9.27;;;6.00;;
40757;SDS011;26462;47.384;19.218;2022-07-03T04:41:34;10.05;;;5.63;;
40757;SDS011;26462;47.384;19.218;2022-07-03T04:44:01;12.70;;;5.90;;
40757;SDS011;26462;47.384;19.218;2022-07-03T04:46:28;9.82;;;6.15;;
40757;SDS011;26462;47.384;19.218;2022-07-03T04:48:55;9.40;;;5.60;;
40757;SDS011;26462;47.384;19.218;2022-07-03T04:51:22;9.60;;;5.60;;
40757;SDS011;26462;47.384;19.218;2022-07-03T04:53:49;9.02;;;5.72;;
40757;SDS011;26462;47.384;19.218;2022-07-03T04:56:16;9.38;;;5.43;;
40757;SDS011;26462;47.384;19.218;2022-07-03T04:58:43;8.20;;;5.30;;
40757;SDS011;26462;47.384;19.218;2022-07-03T05:01:11;10.45;;;5.28;;
40757;SDS011;26462;47.384;19.218;2022-07-03T05:03:39;9.18;;;5.60;;
40757;SDS011;26462;47.384;19.218;2022-07-03T05:06:06;10.23;;;5.68;;
40757;SDS011;26462;47.384;19.218;2022-07-03T05:08:33;8.18;;;4.88;;
40757;SDS011;26462;47.384;19.218;2022-07-03T05:11:00;9.73;;;5.40;;
40757;SDS011;26462;47.384;19.218;2022-07-03T05:13:27;8.63;;;5.63;;
40757;SDS011;26462;47.384;19.218;2022-07-03T05:15:55;8.52;;;5.53;;
40757;SDS011;26462;47.384;19.218;2022-07-03T05:18:22;8.13;;;4.95;;
40757;SDS011;26462;47.384;19.218;2022-07-03T05:20:49;10.10;;;5.20;;
40757;SDS011;26462;47.384;19.218;2022-07-03T05:23:16;11.27;;;5.75;;
40757;SDS011;26462;47.384;19.218;2022-07-03T05:25:43;9.63;;;5.00;;
40757;SDS011;26462;47.384;19.218;2022-07-03T05:28:10;9.65;;;5.43;;
40757;SDS011;26462;47.384;19.218;2022-07-03T05:30:37;8.88;;;5.07;;
40757;SDS011;26462;47.384;19.218;2022-07-03T05:33:04;8.48;;;4.88;;
40757;SDS011;26462;47.384;19.218;2022-07-03T05:35:32;8.93;;;4.80;;
40757;SDS011;26462;47.384;19.218;2022-07-03T05:37:59;7.40;;;4.90;;
40757;SDS011;26462;47.384;19.218;2022-07-03T05:40:26;6.88;;;4.60;;
40757;SDS011;26462;47.384;19.218;2022-07-03T05:42:53;7.55;;;4.78;;
40757;SDS011;26462;47.384;19.218;2022-07-03T05:45:20;7.38;;;5.28;;
40757;SDS011;26462;47.384;19.218;2022-07-03T05:47:48;9.40;;;4.90;;
40757;SDS011;26462;47.384;19.218;2022-07-03T05:50:15;7.55;;;4.80;;
40757;SDS011;26462;47.384;19.218;2022-07-03T05:52:42;7.70;;;4.57;;
40757;SDS011;26462;47.384;19.218;2022-07-03T05:55:09;8.25;;;4.93;;
40757;SDS011;26462;47.384;19.218;2022-07-03T05:57:36;6.15;;;4.50;;
40757;SDS011;26462;47.384;19.218;2022-07-03T06:00:04;7.80;;;4.85;;
40757;SDS011;26462;47.384;19.218;2022-07-03T06:02:31;10.27;;;4.95;;
40757;SDS011;26462;47.384;19.218;2022-07-03T06:04:58;7.53;;;4.78;;
40757;SDS011;26462;47.384;19.218;2022-07-03T06:07:25;7.38;;;4.90;;
40757;SDS011;26462;47.384;19.218;2022-07-03T06:09:52;9.07;;;4.78;;
40757;SDS011;26462;47.384;19.218;2022-07-03T06:12:20;8.85;;;4.95;;
40757;SDS011;26462;47.384;19.218;2022-07-03T06:14:47;8.52;;;4.65;;
40757;SDS011;26462;47.384;19.218;2022-07-03T06:17:14;10.98;;;5.05;;
40757;SDS011;26462;47.384;19.218;2022-07-03T06:19:41;8.88;;;4.70;;
40757;SDS011;26462;47.384;19.218;2022-07-03T06:22:09;8.40;;;5.00;;
40757;SDS011;26462;47.384;19.218;2022-07-03T06:24:36;7.93;;;4.30;;
40757;SDS011;26462;47.384;19.218;2022-07-03T06:27:03;5.95;;;4.30;;
40757;SDS011;26462;47.384;19.218;2022-07-03T06:29:31;8.02;;;4.50;;
40757;SDS011;26462;47.384;19.218;2022-07-03T06:31:58;9.77;;;4.13;;
40757;SDS011;26462;47.384;19.218;2022-07-03T06:34:26;6.28;;;4.07;;
40757;SDS011;26462;47.384;19.218;2022-07-03T06:36:53;11.07;;;5.03;;
40757;SDS011;26462;47.384;19.218;2022-07-03T06:39:20;7.05;;;5.03;;
40757;SDS011;26462;47.384;19.218;2022-07-03T06:41:47;8.13;;;4.88;;
40757;SDS011;26462;47.384;19.218;2022-07-03T06:44:14;5.95;;;3.88;;
40757;SDS011;26462;47.384;19.218;2022-07-03T06:46:41;9.35;;;4.68;;
40757;SDS011;26462;47.384;19.218;2022-07-03T06:49:08;7.18;;;4.20;;
40757;SDS011;26462;47.384;19.218;2022-07-03T06:51:36;8.32;;;4.53;;
40757;SDS011;26462;47.384;19.218;2022-07-03T06:54:03;7.95;;;4.45;;
40757;SDS011;26462;47.384;19.218;2022-07-03T06:56:30;8.65;;;4.38;;
40757;SDS011;26462;47.384;19.218;2022-07-03T06:58:57;7.43;;;4.00;;
40757;SDS011;26462;47.384;19.218;2022-07-03T07:01:24;5.72;;;4.10;;
40757;SDS011;26462;47.384;19.218;2022-07-03T07:03:51;7.75;;;4.53;;
40757;SDS011;26462;47.384;19.218;2022-07-03T07:06:18;7.95;;;4.00;;
40757;SDS011;26462;47.384;19.218;2022-07-03T07:08:46;6.20;;;4.28;;
40757;SDS011;26462;47.384;19.218;2022-07-03T07:11:13;7.35;;;4.43;;
40757;SDS011;26462;47.384;19.218;2022-07-03T07:13:41;9.02;;;4.32;;
40757;SDS011;26462;47.384;19.218;2022-07-03T07:16:08;7.75;;;4.60;;
40757;SDS011;26462;47.384;19.218;2022-07-03T07:18:35;8.07;;;4.70;;
40757;SDS011;26462;47.384;19.218;2022-07-03T07:21:02;6.47;;;4.43;;
40757;SDS011;26462;47.384;19.218;2022-07-03T07:23:29;8.10;;;4.80;;
40757;SDS011;26462;47.384;19.218;2022-07-03T07:25:56;8.13;;;4.05;;
40757;SDS011;26462;47.384;19.218;2022-07-03T07:28:23;6.43;;;4.32;;
40757;SDS011;26462;47.384;19.218;2022-07-03T07:30:50;5.88;;;3.92;;
40757;SDS011;26462;47.384;19.218;2022-07-03T07:33:21;6.85;;;5.00;;
40757;SDS011;26462;47.384;19.218;2022-07-03T07:35:49;7.55;;;4.63;;
40757;SDS011;26462;47.384;19.218;2022-07-03T07:38:17;7.97;;;4.35;;
40757;SDS011;26462;47.384;19.218;2022-07-03T07:40:44;6.82;;;4.32;;
40757;SDS011;26462;47.384;19.218;2022-07-03T07:43:11;7.18;;;4.95;;
40757;SDS011;26462;47.384;19.218;2022-07-03T07:45:39;6.13;;;4.40;;
40757;SDS011;26462;47.384;19.218;2022-07-03T07:48:06;7.22;;;4.40;;
40757;SDS011;26462;47.384;19.218;2022-07-03T07:50:33;7.55;;;4.32;;
40757;SDS011;26462;47.384;19.218;2022-07-03T07:53:00;6.65;;;4.18;;
40757;SDS011;26462;47.384;19.218;2022-07-03T07:55:27;7.47;;;4.63;;
40757;SDS011;26462;47.384;19.218;2022-07-03T07:57:54;8.57;;;4.55;;
40757;SDS011;26462;47.384;19.218;2022-07-03T08:00:21;5.43;;;4.20;;
40757;SDS011;26462;47.384;19.218;2022-07-03T08:02:49;7.45;;;4.70;;
40757;SDS011;26462;47.384;19.218;2022-07-03T08:05:35;6.85;;;4.35;;
40757;SDS011;26462;47.384;19.218;2022-07-03T08:08:09;6.80;;;4.10;;
40757;SDS011;26462;47.384;19.218;2022-07-03T08:10:42;8.25;;;4.80;;
40757;SDS011;26462;47.384;19.218;2022-07-03T08:13:10;5.95;;;4.15;;
40757;SDS011;26462;47.384;19.218;2022-07-03T08:15:38;6.45;;;4.10;;
40757;SDS011;26462;47.384;19.218;2022-07-03T08:18:06;6.72;;;4.55;;
40757;SDS011;26462;47.384;19.218;2022-07-03T08:20:34;9.07;;;4.55;;
40757;SDS011;26462;47.384;19.218;2022-07-03T08:23:02;7.57;;;4.47;;
40757;SDS011;26462;47.384;19.218;2022-07-03T08:25:30;5.93;;;4.53;;
40757;SDS011;26462;47.384;19.218;2022-07-03T08:27:57;8.60;;;4.82;;
40757;SDS011;26462;47.384;19.218;2022-07-03T08:30:26;6.20;;;3.97;;
40757;SDS011;26462;47.384;19.218;2022-07-03T08:32:54;6.65;;;4.53;;
40757;SDS011;26462;47.384;19.218;2022-07-03T08:35:23;5.35;;;4.03;;
40757;SDS011;26462;47.384;19.218;2022-07-03T08:37:51;6.70;;;4.40;;
40757;SDS011;26462;47.384;19.218;2022-07-03T08:40:18;6.57;;;4.25;;
40757;SDS011;26462;47.384;19.218;2022-07-03T08:45:16;8.00;;;4.35;;
40757;SDS011;26462;47.384;19.218;2022-07-03T08:47:45;8.23;;;4.60;;
40757;SDS011;26462;47.384;19.218;2022-07-03T08:50:14;6.20;;;4.43;;
40757;SDS011;26462;47.384;19.218;2022-07-03T08:52:44;6.63;;;4.30;;
40757;SDS011;26462;47.384;19.218;2022-07-03T08:55:12;6.47;;;4.30;;
40757;SDS011;26462;47.384;19.218;2022-07-03T08:57:41;9.30;;;4.68;;
40757;SDS011;26462;47.384;19.218;2022-07-03T09:00:10;6.28;;;4.55;;
40757;SDS011;26462;47.384;19.218;2022-07-03T09:02:41;6.78;;;4.10;;
40757;SDS011;26462;47.384;19.218;2022-07-03T09:07:40;6.43;;;4.18;;
40757;SDS011;26462;47.384;19.218;2022-07-03T09:10:10;5.63;;;4.63;;
40757;SDS011;26462;47.384;19.218;2022-07-03T09:12:39;5.80;;;3.78;;
40757;SDS011;26462;47.384;19.218;2022-07-03T09:15:08;6.10;;;3.67;;
40757;SDS011;26462;47.384;19.218;2022-07-03T09:17:36;6.32;;;4.32;;
40757;SDS011;26462;47.384;19.218;2022-07-03T09:20:04;5.90;;;4.20;;
40757;SDS011;26462;47.384;19.218;2022-07-03T09:22:34;7.38;;;4.53;;
40757;SDS011;26462;47.384;19.218;2022-07-03T09:27:38;7.97;;;4.32;;
40757;SDS011;26462;47.384;19.218;2022-07-03T09:30:16;6.50;;;4.28;;
40757;SDS011;26462;47.384;19.218;2022-07-03T09:32:45;6.05;;;4.45;;
40757;SDS011;26462;47.384;19.218;2022-07-03T09:37:41;4.90;;;3.78;;
40757;SDS011;26462;47.384;19.218;2022-07-03T09:40:15;8.02;;;4.40;;
40757;SDS011;26462;47.384;19.218;2022-07-03T09:43:03;7.15;;;4.32;;
40757;SDS011;26462;47.384;19.218;2022-07-03T09:48:30;5.65;;;4.05;;
40757;SDS011;26462;47.384;19.218;2022-07-03T09:51:19;6.47;;;4.70;;
40757;SDS011;26462;47.384;19.218;2022-07-03T09:53:56;5.88;;;4.20;;
40757;SDS011;26462;47.384;19.218;2022-07-03T09:56:32;7.10;;;4.25;;
40757;SDS011;26462;47.384;19.218;2022-07-03T10:01:29;5.95;;;4.00;;
40757;SDS011;26462;47.384;19.218;2022-07-03T10:06:47;5.03;;;3.95;;
40757;SDS011;26462;47.384;19.218;2022-07-03T10:09:22;5.00;;;3.78;;
40757;SDS011;26462;47.384;19.218;2022-07-03T10:11:49;5.57;;;3.90;;
40757;SDS011;26462;47.384;19.218;2022-07-03T10:14:17;7.50;;;3.97;;
40757;SDS011;26462;47.384;19.218;2022-07-03T10:16:46;4.47;;;3.55;;
40757;SDS011;26462;47.384;19.218;2022-07-03T10:19:18;8.32;;;4.07;;
40757;SDS011;26462;47.384;19.218;2022-07-03T10:22:17;6.03;;;3.45;;
40757;SDS011;26462;47.384;19.218;2022-07-03T10:24:43;5.38;;;3.38;;
40757;SDS011;26462;47.384;19.218;2022-07-03T10:27:14;3.87;;;3.20;;
40757;SDS011;26462;47.384;19.218;2022-07-03T10:29:42;4.78;;;3.17;;
40757;SDS011;26462;47.384;19.218;2022-07-03T10:32:10;5.10;;;3.15;;
40757;SDS011;26462;47.384;19.218;2022-07-03T10:34:39;4.68;;;3.75;;
40757;SDS011;26462;47.384;19.218;2022-07-03T10:37:14;4.22;;;3.17;;
40757;SDS011;26462;47.384;19.218;2022-07-03T10:42:16;3.70;;;2.72;;
40757;SDS011;26462;47.384;19.218;2022-07-03T10:45:12;5.50;;;2.97;;
40757;SDS011;26462;47.384;19.218;2022-07-03T10:52:42;3.70;;;2.83;;
40757;SDS011;26462;47.384;19.218;2022-07-03T10:55:10;3.25;;;2.75;;
40757;SDS011;26462;47.384;19.218;2022-07-03T10:57:39;5.15;;;3.47;;
40757;SDS011;26462;47.384;19.218;2022-07-03T11:00:14;4.60;;;3.00;;
40757;SDS011;26462;47.384;19.218;2022-07-03T11:02:44;4.22;;;2.50;;
40757;SDS011;26462;47.384;19.218;2022-07-03T11:05:17;4.28;;;2.78;;
40757;SDS011;26462;47.384;19.218;2022-07-03T11:15:28;4.35;;;2.50;;
40757;SDS011;26462;47.384;19.218;2022-07-03T11:20:32;3.25;;;2.28;;
40757;SDS011;26462;47.384;19.218;2022-07-03T11:23:07;4.27;;;2.70;;
40757;SDS011;26462;47.384;19.218;2022-07-03T11:25:48;5.55;;;2.53;;
40757;SDS011;26462;47.384;19.218;2022-07-03T11:33:40;4.40;;;3.08;;
40757;SDS011;26462;47.384;19.218;2022-07-03T11:44:08;5.10;;;3.58;;
40757;SDS011;26462;47.384;19.218;2022-07-03T11:46:37;14.95;;;8.25;;
40757;SDS011;26462;47.384;19.218;2022-07-03T11:49:05;9.90;;;5.68;;
40757;SDS011;26462;47.384;19.218;2022-07-03T11:51:33;16.75;;;9.38;;
40757;SDS011;26462;47.384;19.218;2022-07-03T11:54:01;4.93;;;3.80;;
40757;SDS011;26462;47.384;19.218;2022-07-03T11:56:29;8.07;;;3.28;;
40757;SDS011;26462;47.384;19.218;2022-07-03T11:59:00;4.30;;;2.75;;
40757;SDS011;26462;47.384;19.218;2022-07-03T12:04:10;4.68;;;3.45;;
40757;SDS011;26462;47.384;19.218;2022-07-03T12:06:41;7.28;;;3.67;;
40757;SDS011;26462;47.384;19.218;2022-07-03T12:09:17;6.15;;;3.58;;
40757;SDS011;26462;47.384;19.218;2022-07-03T12:11:58;5.07;;;3.20;;
40757;SDS011;26462;47.384;19.218;2022-07-03T12:14:33;4.40;;;3.53;;
40757;SDS011;26462;47.384;19.218;2022-07-03T12:17:23;4.05;;;2.70;;
40757;SDS011;26462;47.384;19.218;2022-07-03T12:19:52;4.38;;;2.72;;
40757;SDS011;26462;47.384;19.218;2022-07-03T12:22:38;9.15;;;3.88;;
40757;SDS011;26462;47.384;19.218;2022-07-03T12:25:06;4.20;;;2.90;;
40757;SDS011;26462;47.384;19.218;2022-07-03T12:27:38;4.55;;;3.20;;
40757;SDS011;26462;47.384;19.218;2022-07-03T12:30:11;7.18;;;4.45;;
40757;SDS011;26462;47.384;19.218;2022-07-03T12:32:44;4.75;;;2.85;;
40757;SDS011;26462;47.384;19.218;2022-07-03T12:35:12;7.35;;;3.13;;
40757;SDS011;26462;47.384;19.218;2022-07-03T12:37:40;5.35;;;3.30;;
40757;SDS011;26462;47.384;19.218;2022-07-03T12:40:11;4.93;;;3.13;;
40757;SDS011;26462;47.384;19.218;2022-07-03T12:42:52;3.95;;;2.28;;
40757;SDS011;26462;47.384;19.218;2022-07-03T12:45:25;4.30;;;2.55;;
40757;SDS011;26462;47.384;19.218;2022-07-03T12:47:57;4.65;;;2.50;;
40757;SDS011;26462;47.384;19.218;2022-07-03T12:50:26;6.85;;;2.78;;
40757;SDS011;26462;47.384;19.218;2022-07-03T12:53:26;7.05;;;2.97;;
40757;SDS011;26462;47.384;19.218;2022-07-03T12:56:02;5.00;;;2.35;;
40757;SDS011;26462;47.384;19.218;2022-07-03T12:58:35;3.08;;;2.10;;
40757;SDS011;26462;47.384;19.218;2022-07-03T13:01:23;3.13;;;1.93;;
40757;SDS011;26462;47.384;19.218;2022-07-03T13:03:50;5.65;;;1.95;;
40757;SDS011;26462;47.384;19.218;2022-07-03T13:06:19;3.70;;;1.70;;
40757;SDS011;26462;47.384;19.218;2022-07-03T13:11:25;4.43;;;2.05;;
40757;SDS011;26462;47.384;19.218;2022-07-03T13:14:12;6.53;;;1.52;;
40757;SDS011;26462;47.384;19.218;2022-07-03T13:19:12;4.45;;;2.10;;
40757;SDS011;26462;47.384;19.218;2022-07-03T13:21:44;4.78;;;2.10;;
40757;SDS011;26462;47.384;19.218;2022-07-03T13:24:12;4.40;;;2.25;;
40757;SDS011;26462;47.384;19.218;2022-07-03T13:26:40;3.75;;;2.35;;
40757;SDS011;26462;47.384;19.218;2022-07-03T13:29:08;5.13;;;1.70;;
40757;SDS011;26462;47.384;19.218;2022-07-03T13:31:35;3.30;;;1.70;;
40757;SDS011;26462;47.384;19.218;2022-07-03T13:34:03;5.55;;;1.98;;
40757;SDS011;26462;47.384;19.218;2022-07-03T13:36:30;3.58;;;2.00;;
40757;SDS011;26462;47.384;19.218;2022-07-03T13:38:58;6.63;;;2.00;;
40757;SDS011;26462;47.384;19.218;2022-07-03T13:41:26;6.15;;;1.95;;
40757;SDS011;26462;47.384;19.218;2022-07-03T13:43:54;3.90;;;1.50;;
40757;SDS011;26462;47.384;19.218;2022-07-03T13:46:22;3.67;;;1.77;;
40757;SDS011;26462;47.384;19.218;2022-07-03T13:48:51;4.60;;;1.63;;
40757;SDS011;26462;47.384;19.218;2022-07-03T13:51:19;3.22;;;1.40;;
40757;SDS011;26462;47.384;19.218;2022-07-03T13:53:47;2.55;;;1.40;;
40757;SDS011;26462;47.384;19.218;2022-07-03T13:56:15;6.10;;;1.30;;
40757;SDS011;26462;47.384;19.218;2022-07-03T13:58:43;3.40;;;0.98;;
40757;SDS011;26462;47.384;19.218;2022-07-03T14:01:16;1.65;;;1.40;;
40757;SDS011;26462;47.384;19.218;2022-07-03T14:03:44;5.63;;;1.98;;
40757;SDS011;26462;47.384;19.218;2022-07-03T14:06:11;5.07;;;1.38;;
40757;SDS011;26462;47.384;19.218;2022-07-03T14:08:38;5.05;;;1.10;;
40757;SDS011;26462;47.384;19.218;2022-07-03T14:11:05;7.13;;;1.20;;
40757;SDS011;26462;47.384;19.218;2022-07-03T14:13:34;3.75;;;0.85;;
40757;SDS011;26462;47.384;19.218;2022-07-03T14:16:01;5.85;;;1.35;;
40757;SDS011;26462;47.384;19.218;2022-07-03T14:18:28;8.07;;;1.25;;
40757;SDS011;26462;47.384;19.218;2022-07-03T14:20:55;3.63;;;1.25;;
40757;SDS011;26462;47.384;19.218;2022-07-03T14:23:22;4.68;;;1.60;;
40757;SDS011;26462;47.384;19.218;2022-07-03T14:25:49;4.93;;;1.15;;
40757;SDS011;26462;47.384;19.218;2022-07-03T14:28:16;4.80;;;1.10;;
40757;SDS011;26462;47.384;19.218;2022-07-03T14:31:02;5.47;;;1.50;;
40757;SDS011;26462;47.384;19.218;2022-07-03T14:33:47;4.72;;;1.33;;
40757;SDS011;26462;47.384;19.218;2022-07-03T14:36:16;6.68;;;1.52;;
40757;SDS011;26462;47.384;19.218;2022-07-03T14:39:03;3.08;;;1.27;;
40757;SDS011;26462;47.384;19.218;2022-07-03T14:41:30;4.93;;;1.00;;
40757;SDS011;26462;47.384;19.218;2022-07-03T14:43:57;7.43;;;3.72;;
40757;SDS011;26462;47.384;19.218;2022-07-03T14:46:24;3.10;;;1.30;;
40757;SDS011;26462;47.384;19.218;2022-07-03T14:48:52;4.25;;;1.23;;
40757;SDS011;26462;47.384;19.218;2022-07-03T14:51:19;3.58;;;1.15;;
40757;SDS011;26462;47.384;19.218;2022-07-03T14:53:47;7.97;;;1.50;;
40757;SDS011;26462;47.384;19.218;2022-07-03T14:56:17;2.30;;;1.35;;
40757;SDS011;26462;47.384;19.218;2022-07-03T14:58:44;4.00;;;1.20;;
40757;SDS011;26462;47.384;19.218;2022-07-03T15:01:13;8.30;;;1.42;;
40757;SDS011;26462;47.384;19.218;2022-07-03T15:03:51;4.45;;;1.80;;
40757;SDS011;26462;47.384;19.218;2022-07-03T15:06:27;4.95;;;1.48;;
40757;SDS011;26462;47.384;19.218;2022-07-03T15:09:02;3.65;;;1.05;;
40757;SDS011;26462;47.384;19.218;2022-07-03T15:11:36;3.88;;;1.45;;
40757;SDS011;26462;47.384;19.218;2022-07-03T15:14:29;3.22;;;1.10;;
40757;SDS011;26462;47.384;19.218;2022-07-03T15:17:05;7.03;;;1.20;;
40757;SDS011;26462;47.384;19.218;2022-07-03T15:19:36;3.25;;;1.40;;
40757;SDS011;26462;47.384;19.218;2022-07-03T15:22:12;3.28;;;1.13;;
40757;SDS011;26462;47.384;19.218;2022-07-03T15:24:41;5.03;;;1.00;;
40757;SDS011;26462;47.384;19.218;2022-07-03T15:27:09;3.97;;;1.48;;
40757;SDS011;26462;47.384;19.218;2022-07-03T15:29:36;2.95;;;0.70;;
40757;SDS011;26462;47.384;19.218;2022-07-03T15:32:03;3.28;;;1.38;;
40757;SDS011;26462;47.384;19.218;2022-07-03T15:34:31;4.53;;;1.27;;
40757;SDS011;26462;47.384;19.218;2022-07-03T15:37:07;5.85;;;1.63;;
40757;SDS011;26462;47.384;19.218;2022-07-03T15:40:03;3.70;;;1.40;;
40757;SDS011;26462;47.384;19.218;2022-07-03T15:45:47;3.72;;;1.20;;
40757;SDS011;26462;47.384;19.218;2022-07-03T15:54:00;4.57;;;1.17;;
40757;SDS011;26462;47.384;19.218;2022-07-03T15:56:30;3.38;;;1.35;;
40757;SDS011;26462;47.384;19.218;2022-07-03T15:59:04;2.45;;;1.27;;
40757;SDS011;26462;47.384;19.218;2022-07-03T16:04:35;2.28;;;0.80;;
40757;SDS011;26462;47.384;19.218;2022-07-03T16:07:12;3.53;;;1.40;;
40757;SDS011;26462;47.384;19.218;2022-07-03T16:09:41;5.70;;;1.30;;
40757;SDS011;26462;47.384;19.218;2022-07-03T16:12:09;4.10;;;1.25;;
40757;SDS011;26462;47.384;19.218;2022-07-03T16:14:55;4.13;;;1.30;;
40757;SDS011;26462;47.384;19.218;2022-07-03T16:17:24;2.40;;;1.05;;
40757;SDS011;26462;47.384;19.218;2022-07-03T16:19:51;2.75;;;1.10;;
40757;SDS011;26462;47.384;19.218;2022-07-03T16:22:18;1.50;;;0.95;;
40757;SDS011;26462;47.384;19.218;2022-07-03T16:24:46;3.38;;;1.23;;
40757;SDS011;26462;47.384;19.218;2022-07-03T16:27:15;3.30;;;1.10;;
40757;SDS011;26462;47.384;19.218;2022-07-03T16:29:45;0.80;;;0.70;;
40757;SDS011;26462;47.384;19.218;2022-07-03T16:32:16;2.33;;;1.00;;
40757;SDS011;26462;47.384;19.218;2022-07-03T16:37:51;2.05;;;0.90;;